sensor_id;sensor_type;location;lat;lon;timestamp;temperature;humidity
47546;DHT22;50104;52.002;4.688;2023-05-10T00:03:25;13.50;85.80
47546;DHT22;50104;52.002;4.688;2023-05-10T00:08:26;13.50;85.80
47546;DHT22;50104;52.002;4.688;2023-05-10T00:13:27;13.40;86.00
47546;DHT22;50104;52.002;4.688;2023-05-10T00:18:30;13.30;86.00
47546;DHT22;50104;52.002;4.688;2023-05-10T00:23:31;13.20;86.10
47546;DHT22;50104;52.002;4.688;2023-05-10T00:28:31;13.10;86.20
47546;DHT22;50104;52.002;4.688;2023-05-10T00:33:32;13.10;86.40
47546;DHT22;50104;52.002;4.688;2023-05-10T00:38:33;13.00;86.40
47546;DHT22;50104;52.002;4.688;2023-05-10T00:43:34;13.00;86.70
47546;DHT22;50104;52.002;4.688;2023-05-10T00:48:35;13.00;86.50
47546;DHT22;50104;52.002;4.688;2023-05-10T00:53:36;13.00;86.80
47546;DHT22;50104;52.002;4.688;2023-05-10T00:58:39;13.00;87.10
47546;DHT22;50104;52.002;4.688;2023-05-10T01:03:40;13.00;87.30
47546;DHT22;50104;52.002;4.688;2023-05-10T01:08:42;13.00;87.20
47546;DHT22;50104;52.002;4.688;2023-05-10T01:13:46;13.00;87.10
47546;DHT22;50104;52.002;4.688;2023-05-10T01:18:51;13.00;87.00
47546;DHT22;50104;52.002;4.688;2023-05-10T01:35:18;13.00;87.70
47546;DHT22;50104;52.002;4.688;2023-05-10T01:40:47;13.10;88.30
47546;DHT22;50104;52.002;4.688;2023-05-10T01:46:04;13.10;88.30
47546;DHT22;50104;52.002;4.688;2023-05-10T01:51:10;13.20;88.60
47546;DHT22;50104;52.002;4.688;2023-05-10T01:56:12;13.20;88.30
47546;DHT22;50104;52.002;4.688;2023-05-10T02:01:14;13.30;88.70
47546;DHT22;50104;52.002;4.688;2023-05-10T02:06:18;13.30;88.90
47546;DHT22;50104;52.002;4.688;2023-05-10T02:11:21;13.40;89.00
47546;DHT22;50104;52.002;4.688;2023-05-10T02:16:24;13.40;88.90
47546;DHT22;50104;52.002;4.688;2023-05-10T02:21:28;13.50;88.90
47546;DHT22;50104;52.002;4.688;2023-05-10T02:26:31;13.50;88.70
47546;DHT22;50104;52.002;4.688;2023-05-10T02:31:34;13.50;89.10
47546;DHT22;50104;52.002;4.688;2023-05-10T02:36:36;13.60;88.80
47546;DHT22;50104;52.002;4.688;2023-05-10T02:41:40;13.60;88.70
47546;DHT22;50104;52.002;4.688;2023-05-10T02:46:43;13.60;88.40
47546;DHT22;50104;52.002;4.688;2023-05-10T02:51:49;13.60;88.60
47546;DHT22;50104;52.002;4.688;2023-05-10T02:56:59;13.70;88.20
47546;DHT22;50104;52.002;4.688;2023-05-10T03:02:02;13.70;88.30
47546;DHT22;50104;52.002;4.688;2023-05-10T03:07:25;13.70;88.50
47546;DHT22;50104;52.002;4.688;2023-05-10T03:13:01;13.70;88.40
47546;DHT22;50104;52.002;4.688;2023-05-10T03:18:09;13.80;88.90
47546;DHT22;50104;52.002;4.688;2023-05-10T03:28:25;13.80;88.60
47546;DHT22;50104;52.002;4.688;2023-05-10T03:33:27;13.80;88.30
47546;DHT22;50104;52.002;4.688;2023-05-10T03:38:28;13.80;88.40
47546;DHT22;50104;52.002;4.688;2023-05-10T03:43:28;13.80;88.40
47546;DHT22;50104;52.002;4.688;2023-05-10T03:48:30;13.90;88.30
47546;DHT22;50104;52.002;4.688;2023-05-10T03:53:32;13.90;88.10
47546;DHT22;50104;52.002;4.688;2023-05-10T03:58:33;13.90;88.40
47546;DHT22;50104;52.002;4.688;2023-05-10T04:03:34;13.90;88.40
47546;DHT22;50104;52.002;4.688;2023-05-10T04:08:36;13.90;88.60
47546;DHT22;50104;52.002;4.688;2023-05-10T04:13:37;13.90;88.60
47546;DHT22;50104;52.002;4.688;2023-05-10T04:18:38;13.90;88.70
47546;DHT22;50104;52.002;4.688;2023-05-10T04:23:40;13.90;88.50
47546;DHT22;50104;52.002;4.688;2023-05-10T04:28:41;13.90;88.40
47546;DHT22;50104;52.002;4.688;2023-05-10T04:33:42;13.90;88.10
47546;DHT22;50104;52.002;4.688;2023-05-10T04:38:43;13.90;88.40
47546;DHT22;50104;52.002;4.688;2023-05-10T04:43:44;13.90;88.50
47546;DHT22;50104;52.002;4.688;2023-05-10T04:48:45;13.90;88.60
47546;DHT22;50104;52.002;4.688;2023-05-10T04:53:45;13.90;88.40
47546;DHT22;50104;52.002;4.688;2023-05-10T04:58:47;14.00;88.30
47546;DHT22;50104;52.002;4.688;2023-05-10T05:03:48;14.00;88.20
47546;DHT22;50104;52.002;4.688;2023-05-10T05:08:49;14.00;88.20
47546;DHT22;50104;52.002;4.688;2023-05-10T05:13:49;14.00;88.10
47546;DHT22;50104;52.002;4.688;2023-05-10T05:18:50;14.00;88.20
47546;DHT22;50104;52.002;4.688;2023-05-10T05:23:51;14.00;87.90
47546;DHT22;50104;52.002;4.688;2023-05-10T05:28:52;14.00;87.70
47546;DHT22;50104;52.002;4.688;2023-05-10T05:33:54;14.00;87.90
47546;DHT22;50104;52.002;4.688;2023-05-10T05:38:57;14.00;87.90
47546;DHT22;50104;52.002;4.688;2023-05-10T05:43:58;14.00;87.80
47546;DHT22;50104;52.002;4.688;2023-05-10T05:48:59;14.00;87.80
47546;DHT22;50104;52.002;4.688;2023-05-10T05:53:59;14.00;88.00
47546;DHT22;50104;52.002;4.688;2023-05-10T05:59:01;14.00;88.00
47546;DHT22;50104;52.002;4.688;2023-05-10T06:04:02;14.00;87.90
47546;DHT22;50104;52.002;4.688;2023-05-10T06:09:22;14.00;88.00
47546;DHT22;50104;52.002;4.688;2023-05-10T06:14:24;14.10;87.70
47546;DHT22;50104;52.002;4.688;2023-05-10T06:19:25;14.10;87.80
47546;DHT22;50104;52.002;4.688;2023-05-10T06:24:26;14.10;87.70
47546;DHT22;50104;52.002;4.688;2023-05-10T06:29:27;14.20;88.00
47546;DHT22;50104;52.002;4.688;2023-05-10T06:34:28;14.20;87.90
47546;DHT22;50104;52.002;4.688;2023-05-10T06:39:29;14.30;87.70
47546;DHT22;50104;52.002;4.688;2023-05-10T06:44:30;14.30;87.50
47546;DHT22;50104;52.002;4.688;2023-05-10T06:49:31;14.40;87.50
47546;DHT22;50104;52.002;4.688;2023-05-10T06:54:32;14.40;87.50
47546;DHT22;50104;52.002;4.688;2023-05-10T06:59:33;14.50;87.60
47546;DHT22;50104;52.002;4.688;2023-05-10T07:04:33;14.60;87.60
47546;DHT22;50104;52.002;4.688;2023-05-10T07:09:34;14.70;87.80
47546;DHT22;50104;52.002;4.688;2023-05-10T07:14:35;14.80;87.70
47546;DHT22;50104;52.002;4.688;2023-05-10T07:19:36;14.90;87.40
47546;DHT22;50104;52.002;4.688;2023-05-10T07:24:37;15.00;87.10
47546;DHT22;50104;52.002;4.688;2023-05-10T07:29:38;15.10;86.80
47546;DHT22;50104;52.002;4.688;2023-05-10T07:34:39;15.10;86.70
47546;DHT22;50104;52.002;4.688;2023-05-10T07:39:40;15.20;86.40
47546;DHT22;50104;52.002;4.688;2023-05-10T07:44:41;15.20;86.30
47546;DHT22;50104;52.002;4.688;2023-05-10T07:49:42;15.20;86.30
47546;DHT22;50104;52.002;4.688;2023-05-10T07:54:44;15.20;86.30
47546;DHT22;50104;52.002;4.688;2023-05-10T07:59:45;15.30;85.90
47546;DHT22;50104;52.002;4.688;2023-05-10T08:04:46;15.20;86.10
47546;DHT22;50104;52.002;4.688;2023-05-10T08:09:46;15.30;86.00
47546;DHT22;50104;52.002;4.688;2023-05-10T08:14:47;15.30;85.90
47546;DHT22;50104;52.002;4.688;2023-05-10T08:19:50;15.30;86.20
47546;DHT22;50104;52.002;4.688;2023-05-10T08:24:51;15.30;86.20
47546;DHT22;50104;52.002;4.688;2023-05-10T08:29:51;15.30;86.10
47546;DHT22;50104;52.002;4.688;2023-05-10T08:34:52;15.30;86.10
47546;DHT22;50104;52.002;4.688;2023-05-10T08:39:53;15.40;86.10
47546;DHT22;50104;52.002;4.688;2023-05-10T08:44:54;15.40;85.90
47546;DHT22;50104;52.002;4.688;2023-05-10T08:49:57;15.40;85.80
47546;DHT22;50104;52.002;4.688;2023-05-10T08:54:59;15.40;85.70
47546;DHT22;50104;52.002;4.688;2023-05-10T09:00:01;15.40;85.70
47546;DHT22;50104;52.002;4.688;2023-05-10T09:05:03;15.40;85.60
47546;DHT22;50104;52.002;4.688;2023-05-10T09:10:05;15.40;85.60
47546;DHT22;50104;52.002;4.688;2023-05-10T09:15:07;15.40;85.50
47546;DHT22;50104;52.002;4.688;2023-05-10T09:20:10;15.50;85.40
47546;DHT22;50104;52.002;4.688;2023-05-10T09:25:15;15.50;85.90
47546;DHT22;50104;52.002;4.688;2023-05-10T09:30:23;15.50;86.10
47546;DHT22;50104;52.002;4.688;2023-05-10T09:35:30;15.60;86.40
47546;DHT22;50104;52.002;4.688;2023-05-10T09:40:32;15.70;86.50
47546;DHT22;50104;52.002;4.688;2023-05-10T09:45:35;15.80;86.50
47546;DHT22;50104;52.002;4.688;2023-05-10T09:50:36;15.90;85.80
47546;DHT22;50104;52.002;4.688;2023-05-10T09:55:44;16.00;85.40
47546;DHT22;50104;52.002;4.688;2023-05-10T10:00:47;16.10;85.10
47546;DHT22;50104;52.002;4.688;2023-05-10T10:05:51;16.10;85.00
47546;DHT22;50104;52.002;4.688;2023-05-10T10:10:53;16.20;84.80
47546;DHT22;50104;52.002;4.688;2023-05-10T10:15:54;16.30;85.10
47546;DHT22;50104;52.002;4.688;2023-05-10T10:20:56;16.30;85.10
47546;DHT22;50104;52.002;4.688;2023-05-10T10:25:57;16.40;84.70
47546;DHT22;50104;52.002;4.688;2023-05-10T10:31:02;16.50;84.60
47546;DHT22;50104;52.002;4.688;2023-05-10T10:36:15;16.50;84.60
47546;DHT22;50104;52.002;4.688;2023-05-10T10:41:36;16.50;84.70
47546;DHT22;50104;52.002;4.688;2023-05-10T10:52:36;16.70;85.20
47546;DHT22;50104;52.002;4.688;2023-05-10T11:07:55;17.10;85.50
47546;DHT22;50104;52.002;4.688;2023-05-10T11:13:07;17.30;84.90
47546;DHT22;50104;52.002;4.688;2023-05-10T11:18:28;17.40;84.00
47546;DHT22;50104;52.002;4.688;2023-05-10T11:23:57;17.50;84.00
47546;DHT22;50104;52.002;4.688;2023-05-10T11:28:59;17.60;83.30
47546;DHT22;50104;52.002;4.688;2023-05-10T11:34:02;17.60;83.30
47546;DHT22;50104;52.002;4.688;2023-05-10T11:39:04;17.60;83.00
47546;DHT22;50104;52.002;4.688;2023-05-10T11:44:09;17.70;83.00
47546;DHT22;50104;52.002;4.688;2023-05-10T11:49:09;17.80;82.70
47546;DHT22;50104;52.002;4.688;2023-05-10T11:54:11;17.90;83.30
47546;DHT22;50104;52.002;4.688;2023-05-10T11:59:14;17.90;81.80
47546;DHT22;50104;52.002;4.688;2023-05-10T12:04:15;18.00;82.20
47546;DHT22;50104;52.002;4.688;2023-05-10T12:09:16;18.10;81.90
47546;DHT22;50104;52.002;4.688;2023-05-10T12:14:17;18.20;82.10
47546;DHT22;50104;52.002;4.688;2023-05-10T12:19:20;18.30;82.20
47546;DHT22;50104;52.002;4.688;2023-05-10T12:24:21;18.40;82.30
47546;DHT22;50104;52.002;4.688;2023-05-10T12:29:22;18.50;82.20
47546;DHT22;50104;52.002;4.688;2023-05-10T12:34:29;18.70;82.30
47546;DHT22;50104;52.002;4.688;2023-05-10T12:39:44;18.80;82.20
47546;DHT22;50104;52.002;4.688;2023-05-10T12:44:46;18.90;80.30
47546;DHT22;50104;52.002;4.688;2023-05-10T12:49:47;19.00;79.50
47546;DHT22;50104;52.002;4.688;2023-05-10T12:54:48;19.00;79.20
47546;DHT22;50104;52.002;4.688;2023-05-10T12:59:49;19.00;79.20
47546;DHT22;50104;52.002;4.688;2023-05-10T13:04:50;19.00;79.00
47546;DHT22;50104;52.002;4.688;2023-05-10T13:09:51;18.90;78.60
47546;DHT22;50104;52.002;4.688;2023-05-10T13:14:52;18.90;78.20
47546;DHT22;50104;52.002;4.688;2023-05-10T13:19:53;18.80;77.80
47546;DHT22;50104;52.002;4.688;2023-05-10T13:24:54;18.70;77.70
47546;DHT22;50104;52.002;4.688;2023-05-10T13:29:55;18.60;77.50
47546;DHT22;50104;52.002;4.688;2023-05-10T13:34:56;18.50;78.00
47546;DHT22;50104;52.002;4.688;2023-05-10T13:39:57;18.50;78.20
47546;DHT22;50104;52.002;4.688;2023-05-10T13:44:58;18.40;78.70
47546;DHT22;50104;52.002;4.688;2023-05-10T13:49:58;18.40;78.40
47546;DHT22;50104;52.002;4.688;2023-05-10T13:54:59;18.30;78.70
47546;DHT22;50104;52.002;4.688;2023-05-10T14:00:01;18.30;78.60
47546;DHT22;50104;52.002;4.688;2023-05-10T14:05:02;18.30;78.60
47546;DHT22;50104;52.002;4.688;2023-05-10T14:10:03;18.20;79.10
47546;DHT22;50104;52.002;4.688;2023-05-10T14:15:05;18.20;79.30
47546;DHT22;50104;52.002;4.688;2023-05-10T14:20:07;18.20;79.50
47546;DHT22;50104;52.002;4.688;2023-05-10T14:25:08;18.30;79.70
47546;DHT22;50104;52.002;4.688;2023-05-10T14:30:10;18.30;79.80
47546;DHT22;50104;52.002;4.688;2023-05-10T14:35:11;18.30;80.10
47546;DHT22;50104;52.002;4.688;2023-05-10T14:40:13;18.40;79.90
47546;DHT22;50104;52.002;4.688;2023-05-10T14:45:15;18.40;79.70
47546;DHT22;50104;52.002;4.688;2023-05-10T14:50:16;18.40;79.70
47546;DHT22;50104;52.002;4.688;2023-05-10T14:55:18;18.50;79.60
47546;DHT22;50104;52.002;4.688;2023-05-10T15:00:19;18.50;79.60
47546;DHT22;50104;52.002;4.688;2023-05-10T15:05:21;18.50;79.60
47546;DHT22;50104;52.002;4.688;2023-05-10T15:10:22;18.50;79.40
47546;DHT22;50104;52.002;4.688;2023-05-10T15:15:23;18.50;79.40
47546;DHT22;50104;52.002;4.688;2023-05-10T15:20:24;18.60;79.40
47546;DHT22;50104;52.002;4.688;2023-05-10T15:25:25;18.60;79.50
47546;DHT22;50104;52.002;4.688;2023-05-10T15:30:26;18.60;79.60
47546;DHT22;50104;52.002;4.688;2023-05-10T15:35:27;18.70;79.60
47546;DHT22;50104;52.002;4.688;2023-05-10T15:40:29;18.70;79.60
47546;DHT22;50104;52.002;4.688;2023-05-10T15:45:30;18.70;79.40
47546;DHT22;50104;52.002;4.688;2023-05-10T15:50:30;18.70;79.10
47546;DHT22;50104;52.002;4.688;2023-05-10T15:55:31;18.70;79.00
47546;DHT22;50104;52.002;4.688;2023-05-10T16:00:32;18.70;78.80
47546;DHT22;50104;52.002;4.688;2023-05-10T16:05:33;18.70;78.80
47546;DHT22;50104;52.002;4.688;2023-05-10T16:10:35;18.70;78.40
47546;DHT22;50104;52.002;4.688;2023-05-10T16:15:36;18.70;78.40
47546;DHT22;50104;52.002;4.688;2023-05-10T16:20:37;18.70;78.80
47546;DHT22;50104;52.002;4.688;2023-05-10T16:25:40;18.70;78.60
47546;DHT22;50104;52.002;4.688;2023-05-10T16:30:41;18.70;78.70
47546;DHT22;50104;52.002;4.688;2023-05-10T16:35:42;18.70;79.00
47546;DHT22;50104;52.002;4.688;2023-05-10T16:40:43;18.70;79.30
47546;DHT22;50104;52.002;4.688;2023-05-10T16:45:44;18.80;79.20
47546;DHT22;50104;52.002;4.688;2023-05-10T16:50:45;18.80;79.10
47546;DHT22;50104;52.002;4.688;2023-05-10T16:55:47;18.90;78.90
47546;DHT22;50104;52.002;4.688;2023-05-10T17:00:48;18.80;78.80
47546;DHT22;50104;52.002;4.688;2023-05-10T17:05:48;18.80;78.70
47546;DHT22;50104;52.002;4.688;2023-05-10T17:10:49;18.80;78.70
47546;DHT22;50104;52.002;4.688;2023-05-10T17:15:50;18.80;78.50
47546;DHT22;50104;52.002;4.688;2023-05-10T17:20:51;18.80;78.30
47546;DHT22;50104;52.002;4.688;2023-05-10T17:25:52;18.70;77.90
47546;DHT22;50104;52.002;4.688;2023-05-10T17:30:56;18.60;77.20
47546;DHT22;50104;52.002;4.688;2023-05-10T17:35:57;18.50;77.30
47546;DHT22;50104;52.002;4.688;2023-05-10T17:40:58;18.50;77.90
47546;DHT22;50104;52.002;4.688;2023-05-10T17:45:59;18.40;77.90
47546;DHT22;50104;52.002;4.688;2023-05-10T17:51:00;18.30;78.00
47546;DHT22;50104;52.002;4.688;2023-05-10T17:56:02;18.20;77.90
47546;DHT22;50104;52.002;4.688;2023-05-10T18:01:03;18.20;77.80
47546;DHT22;50104;52.002;4.688;2023-05-10T18:06:04;18.10;77.80
47546;DHT22;50104;52.002;4.688;2023-05-10T18:11:06;18.10;77.80
47546;DHT22;50104;52.002;4.688;2023-05-10T18:16:08;18.00;77.80
47546;DHT22;50104;52.002;4.688;2023-05-10T18:21:12;17.90;77.90
47546;DHT22;50104;52.002;4.688;2023-05-10T18:26:12;17.80;78.10
47546;DHT22;50104;52.002;4.688;2023-05-10T18:31:14;17.70;78.00
47546;DHT22;50104;52.002;4.688;2023-05-10T18:36:15;17.60;78.00
47546;DHT22;50104;52.002;4.688;2023-05-10T18:41:16;17.50;78.00
47546;DHT22;50104;52.002;4.688;2023-05-10T18:46:18;17.50;77.80
47546;DHT22;50104;52.002;4.688;2023-05-10T18:51:19;17.40;78.00
47546;DHT22;50104;52.002;4.688;2023-05-10T18:56:22;17.30;77.80
47546;DHT22;50104;52.002;4.688;2023-05-10T19:01:23;17.20;78.20
47546;DHT22;50104;52.002;4.688;2023-05-10T19:06:26;17.10;78.00
47546;DHT22;50104;52.002;4.688;2023-05-10T19:11:27;17.00;78.30
47546;DHT22;50104;52.002;4.688;2023-05-10T19:16:31;16.90;78.30
47546;DHT22;50104;52.002;4.688;2023-05-10T19:21:33;16.80;78.20
47546;DHT22;50104;52.002;4.688;2023-05-10T19:26:34;16.80;78.20
47546;DHT22;50104;52.002;4.688;2023-05-10T19:31:35;16.70;78.30
47546;DHT22;50104;52.002;4.688;2023-05-10T19:36:36;16.60;78.50
47546;DHT22;50104;52.002;4.688;2023-05-10T19:41:39;16.50;78.80
47546;DHT22;50104;52.002;4.688;2023-05-10T19:46:39;16.40;78.90
47546;DHT22;50104;52.002;4.688;2023-05-10T19:51:40;16.30;79.00
47546;DHT22;50104;52.002;4.688;2023-05-10T19:56:42;16.30;79.10
47546;DHT22;50104;52.002;4.688;2023-05-10T20:01:43;16.20;79.30
47546;DHT22;50104;52.002;4.688;2023-05-10T20:06:44;16.10;79.50
47546;DHT22;50104;52.002;4.688;2023-05-10T20:11:45;16.10;79.60
47546;DHT22;50104;52.002;4.688;2023-05-10T20:16:46;16.00;79.70
47546;DHT22;50104;52.002;4.688;2023-05-10T20:21:47;15.90;79.90
47546;DHT22;50104;52.002;4.688;2023-05-10T20:26:48;15.90;79.90
47546;DHT22;50104;52.002;4.688;2023-05-10T20:31:48;15.80;80.20
47546;DHT22;50104;52.002;4.688;2023-05-10T20:36:49;15.80;80.30
47546;DHT22;50104;52.002;4.688;2023-05-10T20:41:50;15.70;80.20
47546;DHT22;50104;52.002;4.688;2023-05-10T20:46:54;15.70;80.30
47546;DHT22;50104;52.002;4.688;2023-05-10T20:51:54;15.60;80.50
47546;DHT22;50104;52.002;4.688;2023-05-10T20:56:56;15.50;80.50
47546;DHT22;50104;52.002;4.688;2023-05-10T21:01:56;15.50;80.60
47546;DHT22;50104;52.002;4.688;2023-05-10T21:06:57;15.50;80.80
47546;DHT22;50104;52.002;4.688;2023-05-10T21:11:58;15.40;80.80
47546;DHT22;50104;52.002;4.688;2023-05-10T21:17:00;15.30;80.80
47546;DHT22;50104;52.002;4.688;2023-05-10T21:22:01;15.30;81.00
47546;DHT22;50104;52.002;4.688;2023-05-10T21:27:02;15.20;81.10
47546;DHT22;50104;52.002;4.688;2023-05-10T21:32:05;15.20;81.10
47546;DHT22;50104;52.002;4.688;2023-05-10T21:37:05;15.10;81.20
47546;DHT22;50104;52.002;4.688;2023-05-10T21:42:06;15.10;81.40
47546;DHT22;50104;52.002;4.688;2023-05-10T21:47:07;15.00;81.50
47546;DHT22;50104;52.002;4.688;2023-05-10T21:52:08;15.00;81.50
47546;DHT22;50104;52.002;4.688;2023-05-10T21:57:09;15.00;81.70
47546;DHT22;50104;52.002;4.688;2023-05-10T22:02:12;15.00;81.70
47546;DHT22;50104;52.002;4.688;2023-05-10T22:07:13;14.90;81.70
47546;DHT22;50104;52.002;4.688;2023-05-10T22:12:16;14.90;81.70
47546;DHT22;50104;52.002;4.688;2023-05-10T22:17:17;14.90;81.40
47546;DHT22;50104;52.002;4.688;2023-05-10T22:22:18;14.80;81.20
47546;DHT22;50104;52.002;4.688;2023-05-10T22:27:19;14.80;81.40
47546;DHT22;50104;52.002;4.688;2023-05-10T22:32:21;14.80;81.90
47546;DHT22;50104;52.002;4.688;2023-05-10T22:37:22;14.70;82.00
47546;DHT22;50104;52.002;4.688;2023-05-10T22:42:23;14.70;81.70
47546;DHT22;50104;52.002;4.688;2023-05-10T22:47:24;14.70;81.90
47546;DHT22;50104;52.002;4.688;2023-05-10T22:52:25;14.60;82.20
47546;DHT22;50104;52.002;4.688;2023-05-10T22:57:26;14.60;82.30
47546;DHT22;50104;52.002;4.688;2023-05-10T23:02:27;14.60;82.00
47546;DHT22;50104;52.002;4.688;2023-05-10T23:07:28;14.60;81.90
47546;DHT22;50104;52.002;4.688;2023-05-10T23:12:29;14.60;81.90
47546;DHT22;50104;52.002;4.688;2023-05-10T23:17:30;14.50;81.60
47546;DHT22;50104;52.002;4.688;2023-05-10T23:22:31;14.50;81.80
47546;DHT22;50104;52.002;4.688;2023-05-10T23:27:32;14.50;81.80
47546;DHT22;50104;52.002;4.688;2023-05-10T23:32:33;14.40;81.80
47546;DHT22;50104;52.002;4.688;2023-05-10T23:37:34;14.40;81.80
47546;DHT22;50104;52.002;4.688;2023-05-10T23:42:36;14.40;81.90
47546;DHT22;50104;52.002;4.688;2023-05-10T23:47:36;14.40;82.00
47546;DHT22;50104;52.002;4.688;2023-05-10T23:52:37;14.40;82.00
47546;DHT22;50104;52.002;4.688;2023-05-10T23:57:38;14.40;82.00
